Aviation Digital Data Service (ADDS)

Output produced by METARs form (1053 UTC 20 September 2017)
found at http://www.aviationweather.gov/adds/metars/
 
KLNS 200953Z 33007KT 10SM SCT080 BKN100 21/17 A2992 RMK AO2 SLP130 T02060172
KLNS 200939Z 2010/2106 33007KT P6SM SCT100 
     FM201400 34008KT P6SM SCT200 
     FM210000 35004KT P6SM SKC